sensor_id;sensor_type;location;lat;lon;timestamp;pressure;altitude;pressure_sealevel;temperature;humidity
10712;BME280;5407;51.234;6.804;2023-04-04T00:00:43;102402.91;;;24.14;36.31
10712;BME280;5407;51.234;6.804;2023-04-04T00:03:10;102402.50;;;24.12;36.39
10712;BME280;5407;51.234;6.804;2023-04-04T00:05:37;102397.00;;;24.12;36.24
10712;BME280;5407;51.234;6.804;2023-04-04T00:08:05;102396.19;;;24.08;36.37
10712;BME280;5407;51.234;6.804;2023-04-04T00:10:32;102400.53;;;24.09;36.48
10712;BME280;5407;51.234;6.804;2023-04-04T00:12:59;102397.38;;;24.07;36.46
10712;BME280;5407;51.234;6.804;2023-04-04T00:15:27;102394.63;;;24.07;36.16
10712;BME280;5407;51.234;6.804;2023-04-04T00:17:54;102396.19;;;24.05;36.18
10712;BME280;5407;51.234;6.804;2023-04-04T00:20:21;102406.44;;;24.04;36.44
10712;BME280;5407;51.234;6.804;2023-04-04T00:22:48;102396.59;;;24.03;36.33
10712;BME280;5407;51.234;6.804;2023-04-04T00:25:16;102399.34;;;24.03;36.27
10712;BME280;5407;51.234;6.804;2023-04-04T00:27:43;102392.25;;;24.02;36.29
10712;BME280;5407;51.234;6.804;2023-04-04T00:30:11;102390.69;;;24.01;36.28
10712;BME280;5407;51.234;6.804;2023-04-04T00:32:38;102400.13;;;24.00;36.40
10712;BME280;5407;51.234;6.804;2023-04-04T00:35:05;102400.13;;;24.00;36.35
10712;BME280;5407;51.234;6.804;2023-04-04T00:37:32;102397.38;;;24.00;36.39
10712;BME280;5407;51.234;6.804;2023-04-04T00:40:00;102402.47;;;24.02;36.42
10712;BME280;5407;51.234;6.804;2023-04-04T00:42:29;102397.38;;;24.00;36.49
10712;BME280;5407;51.234;6.804;2023-04-04T00:44:57;102401.72;;;24.01;36.28
10712;BME280;5407;51.234;6.804;2023-04-04T00:47:25;102399.34;;;24.00;36.32
10712;BME280;5407;51.234;6.804;2023-04-04T00:49:55;102398.16;;;24.01;36.08
10712;BME280;5407;51.234;6.804;2023-04-04T00:52:22;102404.47;;;24.01;36.22
10712;BME280;5407;51.234;6.804;2023-04-04T00:54:49;102399.34;;;24.00;36.31
10712;BME280;5407;51.234;6.804;2023-04-04T00:57:16;102401.72;;;24.01;36.20
10712;BME280;5407;51.234;6.804;2023-04-04T00:59:45;102396.97;;;23.98;36.28
10712;BME280;5407;51.234;6.804;2023-04-04T01:02:12;102400.13;;;24.00;36.31
10712;BME280;5407;51.234;6.804;2023-04-04T01:04:39;102403.25;;;23.99;36.27
10712;BME280;5407;51.234;6.804;2023-04-04T01:07:07;102402.09;;;24.00;36.05
10712;BME280;5407;51.234;6.804;2023-04-04T01:09:34;102401.69;;;23.98;36.24
10712;BME280;5407;51.234;6.804;2023-04-04T01:12:01;102409.97;;;23.98;36.31
10712;BME280;5407;51.234;6.804;2023-04-04T01:14:30;102394.59;;;23.97;36.44
10712;BME280;5407;51.234;6.804;2023-04-04T01:16:58;102395.38;;;24.01;36.56
10712;BME280;5407;51.234;6.804;2023-04-04T01:19:31;102390.69;;;24.01;36.42
10712;BME280;5407;51.234;6.804;2023-04-04T01:22:01;102396.97;;;24.02;36.10
10712;BME280;5407;51.234;6.804;2023-04-04T01:24:32;102386.34;;;24.00;36.11
10712;BME280;5407;51.234;6.804;2023-04-04T01:27:03;102383.59;;;24.00;36.21
10712;BME280;5407;51.234;6.804;2023-04-04T01:29:33;102389.09;;;24.00;35.94
10712;BME280;5407;51.234;6.804;2023-04-04T01:32:04;102387.53;;;23.99;35.97
10712;BME280;5407;51.234;6.804;2023-04-04T01:34:38;102385.94;;;23.98;36.05
10712;BME280;5407;51.234;6.804;2023-04-04T01:37:12;102379.63;;;23.98;36.05
10712;BME280;5407;51.234;6.804;2023-04-04T01:39:47;102386.31;;;23.97;35.88
10712;BME280;5407;51.234;6.804;2023-04-04T01:42:16;102377.28;;;23.96;35.78
10712;BME280;5407;51.234;6.804;2023-04-04T01:44:45;102381.22;;;23.95;35.74
10712;BME280;5407;51.234;6.804;2023-04-04T01:47:13;102385.16;;;23.94;35.72
10712;BME280;5407;51.234;6.804;2023-04-04T01:49:41;102383.56;;;23.93;35.77
10712;BME280;5407;51.234;6.804;2023-04-04T01:52:08;102375.69;;;23.92;35.79
10712;BME280;5407;51.234;6.804;2023-04-04T01:54:35;102370.56;;;23.90;35.76
10712;BME280;5407;51.234;6.804;2023-04-04T01:57:01;102374.91;;;23.91;35.65
10712;BME280;5407;51.234;6.804;2023-04-04T01:59:30;102374.09;;;23.87;36.00
10712;BME280;5407;51.234;6.804;2023-04-04T02:01:57;102369.00;;;23.89;35.65
10712;BME280;5407;51.234;6.804;2023-04-04T02:04:24;102375.66;;;23.88;35.85
10712;BME280;5407;51.234;6.804;2023-04-04T02:06:51;102376.44;;;23.85;35.95
10712;BME280;5407;51.234;6.804;2023-04-04T02:09:18;102379.59;;;23.87;35.89
10712;BME280;5407;51.234;6.804;2023-04-04T02:11:46;102367.81;;;23.87;35.79
10712;BME280;5407;51.234;6.804;2023-04-04T02:14:12;102376.06;;;23.87;36.00
10712;BME280;5407;51.234;6.804;2023-04-04T02:16:42;102373.31;;;23.87;35.80
10712;BME280;5407;51.234;6.804;2023-04-04T02:19:09;102369.34;;;23.84;35.91
10712;BME280;5407;51.234;6.804;2023-04-04T02:21:36;102374.88;;;23.84;35.84
10712;BME280;5407;51.234;6.804;2023-04-04T02:24:03;102372.13;;;23.84;35.84
10712;BME280;5407;51.234;6.804;2023-04-04T02:26:30;102367.78;;;23.83;35.96
10712;BME280;5407;51.234;6.804;2023-04-04T02:28:57;102367.00;;;23.83;36.10
10712;BME280;5407;51.234;6.804;2023-04-04T02:31:24;102367.78;;;23.83;35.92
10712;BME280;5407;51.234;6.804;2023-04-04T02:33:53;102367.75;;;23.80;36.22
10712;BME280;5407;51.234;6.804;2023-04-04T02:36:20;102364.63;;;23.81;36.17
10712;BME280;5407;51.234;6.804;2023-04-04T02:38:50;102361.88;;;23.81;35.88
10712;BME280;5407;51.234;6.804;2023-04-04T02:41:18;102358.34;;;23.81;35.84
10712;BME280;5407;51.234;6.804;2023-04-04T02:43:45;102356.34;;;23.81;35.85
10712;BME280;5407;51.234;6.804;2023-04-04T02:46:12;102361.09;;;23.81;36.01
10712;BME280;5407;51.234;6.804;2023-04-04T02:48:39;102351.22;;;23.80;35.87
10712;BME280;5407;51.234;6.804;2023-04-04T02:51:07;102357.94;;;23.82;35.90
10712;BME280;5407;51.234;6.804;2023-04-04T02:53:34;102351.22;;;23.80;35.95
10712;BME280;5407;51.234;6.804;2023-04-04T02:56:13;102354.34;;;23.78;36.15
10712;BME280;5407;51.234;6.804;2023-04-04T02:58:40;102353.97;;;23.80;35.85
10712;BME280;5407;51.234;6.804;2023-04-04T03:01:06;102346.50;;;23.77;36.10
10712;BME280;5407;51.234;6.804;2023-04-04T03:03:36;102352.41;;;23.79;35.71
10712;BME280;5407;51.234;6.804;2023-04-04T03:06:03;102347.66;;;23.79;35.84
10712;BME280;5407;51.234;6.804;2023-04-04T03:08:31;102359.88;;;23.78;35.91
10712;BME280;5407;51.234;6.804;2023-04-04T03:10:59;102350.03;;;23.77;35.69
10712;BME280;5407;51.234;6.804;2023-04-04T03:13:27;102353.97;;;23.76;35.85
10712;BME280;5407;51.234;6.804;2023-04-04T03:15:58;102354.75;;;23.73;35.84
10712;BME280;5407;51.234;6.804;2023-04-04T03:18:28;102359.06;;;23.74;35.70
10712;BME280;5407;51.234;6.804;2023-04-04T03:20:55;102351.97;;;23.73;35.81
10712;BME280;5407;51.234;6.804;2023-04-04T03:23:22;102351.97;;;23.73;35.58
10712;BME280;5407;51.234;6.804;2023-04-04T03:25:50;102347.66;;;23.73;35.71
10712;BME280;5407;51.234;6.804;2023-04-04T03:28:19;102339.38;;;23.73;35.71
10712;BME280;5407;51.234;6.804;2023-04-04T03:30:46;102350.81;;;23.71;35.63
10712;BME280;5407;51.234;6.804;2023-04-04T03:33:14;102350.81;;;23.71;35.71
10712;BME280;5407;51.234;6.804;2023-04-04T03:35:41;102352.38;;;23.69;35.84
10712;BME280;5407;51.234;6.804;2023-04-04T03:38:08;102354.75;;;23.70;35.81
10712;BME280;5407;51.234;6.804;2023-04-04T03:40:35;102351.19;;;23.70;35.67
10712;BME280;5407;51.234;6.804;2023-04-04T03:43:10;102356.69;;;23.70;35.98
10712;BME280;5407;51.234;6.804;2023-04-04T03:45:38;102349.63;;;23.69;35.91
10712;BME280;5407;51.234;6.804;2023-04-04T03:48:05;102346.47;;;23.67;36.02
10712;BME280;5407;51.234;6.804;2023-04-04T03:50:34;102345.28;;;23.68;35.84
10712;BME280;5407;51.234;6.804;2023-04-04T03:53:01;102342.53;;;23.68;35.74
10712;BME280;5407;51.234;6.804;2023-04-04T03:55:28;102337.00;;;23.68;35.75
10712;BME280;5407;51.234;6.804;2023-04-04T03:57:58;102327.56;;;23.69;36.06
10712;BME280;5407;51.234;6.804;2023-04-04T04:00:26;102329.91;;;23.67;35.92
10712;BME280;5407;51.234;6.804;2023-04-04T04:02:53;102329.16;;;23.66;35.98
10712;BME280;5407;51.234;6.804;2023-04-04T04:05:20;102329.91;;;23.67;35.87
10712;BME280;5407;51.234;6.804;2023-04-04T04:07:47;102326.78;;;23.68;35.95
10712;BME280;5407;51.234;6.804;2023-04-04T04:10:14;102326.78;;;23.68;35.79
10712;BME280;5407;51.234;6.804;2023-04-04T04:12:41;102329.91;;;23.67;35.94
10712;BME280;5407;51.234;6.804;2023-04-04T04:15:09;102335.44;;;23.67;35.97
10712;BME280;5407;51.234;6.804;2023-04-04T04:17:39;102340.94;;;23.67;35.94
10712;BME280;5407;51.234;6.804;2023-04-04T04:20:08;102332.28;;;23.65;35.81
10712;BME280;5407;51.234;6.804;2023-04-04T04:22:44;102327.53;;;23.65;36.02
10712;BME280;5407;51.234;6.804;2023-04-04T04:25:12;102337.78;;;23.65;35.98
10712;BME280;5407;51.234;6.804;2023-04-04T04:27:41;102333.84;;;23.66;35.84
10712;BME280;5407;51.234;6.804;2023-04-04T04:30:08;102330.69;;;23.64;36.05
10712;BME280;5407;51.234;6.804;2023-04-04T04:32:41;102320.47;;;23.64;36.07
10712;BME280;5407;51.234;6.804;2023-04-04T04:35:09;102325.19;;;23.64;35.96
10712;BME280;5407;51.234;6.804;2023-04-04T04:37:37;102329.53;;;23.65;36.05
10712;BME280;5407;51.234;6.804;2023-04-04T04:40:07;102325.59;;;23.66;36.01
10712;BME280;5407;51.234;6.804;2023-04-04T04:42:50;102327.53;;;23.65;35.99
10712;BME280;5407;51.234;6.804;2023-04-04T04:45:20;102331.09;;;23.66;35.88
10712;BME280;5407;51.234;6.804;2023-04-04T04:47:53;102325.19;;;23.64;35.95
10712;BME280;5407;51.234;6.804;2023-04-04T04:50:20;102325.59;;;23.66;35.88
10712;BME280;5407;51.234;6.804;2023-04-04T04:52:49;102326.78;;;23.65;35.84
10712;BME280;5407;51.234;6.804;2023-04-04T04:55:17;102324.00;;;23.65;35.82
10712;BME280;5407;51.234;6.804;2023-04-04T04:57:50;102327.94;;;23.64;36.03
10712;BME280;5407;51.234;6.804;2023-04-04T05:00:22;102337.78;;;23.65;35.70
10712;BME280;5407;51.234;6.804;2023-04-04T05:02:49;102329.53;;;23.65;35.74
10712;BME280;5407;51.234;6.804;2023-04-04T05:05:26;102332.28;;;23.65;35.88
10712;BME280;5407;51.234;6.804;2023-04-04T05:08:00;102335.03;;;23.65;35.83
10712;BME280;5407;51.234;6.804;2023-04-04T05:10:28;102329.53;;;23.65;35.75
10712;BME280;5407;51.234;6.804;2023-04-04T05:12:55;102329.13;;;23.63;35.69
10712;BME280;5407;51.234;6.804;2023-04-04T05:15:25;102327.94;;;23.64;35.74
10712;BME280;5407;51.234;6.804;2023-04-04T05:17:54;102323.63;;;23.63;35.54
10712;BME280;5407;51.234;6.804;2023-04-04T05:20:21;102323.63;;;23.63;35.72
10712;BME280;5407;51.234;6.804;2023-04-04T05:22:50;102331.50;;;23.61;35.67
10712;BME280;5407;51.234;6.804;2023-04-04T05:25:25;102339.75;;;23.61;35.51
10712;BME280;5407;51.234;6.804;2023-04-04T05:27:52;102332.66;;;23.60;35.46
10712;BME280;5407;51.234;6.804;2023-04-04T05:30:20;102349.19;;;23.60;35.56
10712;BME280;5407;51.234;6.804;2023-04-04T05:32:58;102340.94;;;23.60;35.62
10712;BME280;5407;51.234;6.804;2023-04-04T05:35:27;102347.63;;;23.59;35.58
10712;BME280;5407;51.234;6.804;2023-04-04T05:37:58;102340.94;;;23.60;35.65
10712;BME280;5407;51.234;6.804;2023-04-04T05:40:25;102349.59;;;23.62;36.09
10712;BME280;5407;51.234;6.804;2023-04-04T05:43:02;102349.59;;;23.65;36.18
10712;BME280;5407;51.234;6.804;2023-04-04T05:45:36;102347.25;;;23.67;36.20
10712;BME280;5407;51.234;6.804;2023-04-04T05:48:03;102359.06;;;23.68;36.22
10712;BME280;5407;51.234;6.804;2023-04-04T05:50:36;102355.94;;;23.69;36.21
10712;BME280;5407;51.234;6.804;2023-04-04T05:53:05;102352.00;;;23.70;36.01
10712;BME280;5407;51.234;6.804;2023-04-04T05:55:33;102351.59;;;23.72;36.06
10712;BME280;5407;51.234;6.804;2023-04-04T05:58:00;102354.34;;;23.72;35.57
10712;BME280;5407;51.234;6.804;2023-04-04T06:00:40;102360.63;;;23.69;35.64
10712;BME280;5407;51.234;6.804;2023-04-04T06:03:08;102370.84;;;23.65;35.72
10712;BME280;5407;51.234;6.804;2023-04-04T06:05:35;102373.63;;;23.65;35.60
10712;BME280;5407;51.234;6.804;2023-04-04T06:08:02;102381.84;;;23.61;35.75
10712;BME280;5407;51.234;6.804;2023-04-04T06:10:30;102374.78;;;23.60;35.64
10712;BME280;5407;51.234;6.804;2023-04-04T06:12:57;102375.19;;;23.59;35.66
10712;BME280;5407;51.234;6.804;2023-04-04T06:15:24;102376.34;;;23.58;35.74
10712;BME280;5407;51.234;6.804;2023-04-04T06:17:51;102384.22;;;23.56;35.70
10712;BME280;5407;51.234;6.804;2023-04-04T06:20:18;102381.47;;;23.56;35.66
10712;BME280;5407;51.234;6.804;2023-04-04T06:22:48;102392.84;;;23.54;35.76
10712;BME280;5407;51.234;6.804;2023-04-04T06:25:15;102383.41;;;23.55;35.79
10712;BME280;5407;51.234;6.804;2023-04-04T06:27:43;102387.34;;;23.54;35.92
10712;BME280;5407;51.234;6.804;2023-04-04T06:30:11;102385.00;;;23.53;35.73
10712;BME280;5407;51.234;6.804;2023-04-04T06:32:39;102392.84;;;23.54;35.90
10712;BME280;5407;51.234;6.804;2023-04-04T06:35:08;102390.50;;;23.56;36.26
10712;BME280;5407;51.234;6.804;2023-04-04T06:37:46;102388.94;;;23.59;36.37
10712;BME280;5407;51.234;6.804;2023-04-04T06:40:17;102398.38;;;23.61;36.34
10712;BME280;5407;51.234;6.804;2023-04-04T06:42:48;102395.25;;;23.63;36.42
10712;BME280;5407;51.234;6.804;2023-04-04T06:45:17;102392.91;;;23.65;36.25
10712;BME280;5407;51.234;6.804;2023-04-04T06:47:44;102392.91;;;23.65;36.09
10712;BME280;5407;51.234;6.804;2023-04-04T06:50:12;102403.53;;;23.63;36.18
10712;BME280;5407;51.234;6.804;2023-04-04T06:52:39;102400.78;;;23.63;36.13
10712;BME280;5407;51.234;6.804;2023-04-04T06:55:06;102402.31;;;23.60;36.07
10712;BME280;5407;51.234;6.804;2023-04-04T06:57:33;102400.38;;;23.61;36.02
10712;BME280;5407;51.234;6.804;2023-04-04T07:00:02;102411.41;;;23.61;35.89
10712;BME280;5407;51.234;6.804;2023-04-04T07:02:29;102409.41;;;23.61;35.98
10712;BME280;5407;51.234;6.804;2023-04-04T07:04:57;102414.16;;;23.61;35.85
10712;BME280;5407;51.234;6.804;2023-04-04T07:07:24;102411.41;;;23.61;35.96
10712;BME280;5407;51.234;6.804;2023-04-04T07:09:51;102407.06;;;23.60;35.92
10712;BME280;5407;51.234;6.804;2023-04-04T07:12:17;102405.47;;;23.59;35.98
10712;BME280;5407;51.234;6.804;2023-04-04T07:14:44;102411.78;;;23.59;35.96
10712;BME280;5407;51.234;6.804;2023-04-04T07:17:12;102405.47;;;23.59;35.93
10712;BME280;5407;51.234;6.804;2023-04-04T07:19:39;102399.97;;;23.59;35.82
10712;BME280;5407;51.234;6.804;2023-04-04T07:22:06;102407.06;;;23.60;35.86
10712;BME280;5407;51.234;6.804;2023-04-04T07:24:33;102412.56;;;23.60;35.77
10712;BME280;5407;51.234;6.804;2023-04-04T07:27:00;102414.16;;;23.61;35.73
10712;BME280;5407;51.234;6.804;2023-04-04T07:29:27;102403.13;;;23.61;35.73
10712;BME280;5407;51.234;6.804;2023-04-04T07:31:53;102399.56;;;23.60;35.71
10712;BME280;5407;51.234;6.804;2023-04-04T07:34:22;102410.22;;;23.62;35.73
10712;BME280;5407;51.234;6.804;2023-04-04T07:36:50;102405.88;;;23.61;35.68
10712;BME280;5407;51.234;6.804;2023-04-04T07:39:18;102405.09;;;23.60;35.74
10712;BME280;5407;51.234;6.804;2023-04-04T07:41:44;102403.91;;;23.61;35.58
10712;BME280;5407;51.234;6.804;2023-04-04T07:44:11;102410.22;;;23.62;35.63
10712;BME280;5407;51.234;6.804;2023-04-04T07:46:38;102401.94;;;23.62;35.61
10712;BME280;5407;51.234;6.804;2023-04-04T07:49:05;102402.34;;;23.64;35.74
10712;BME280;5407;51.234;6.804;2023-04-04T07:51:33;102398.38;;;23.61;35.76
10712;BME280;5407;51.234;6.804;2023-04-04T07:54:00;102398.38;;;23.61;35.56
10712;BME280;5407;51.234;6.804;2023-04-04T07:56:27;102390.94;;;23.62;35.74
10712;BME280;5407;51.234;6.804;2023-04-04T07:58:54;102386.19;;;23.62;35.70
10712;BME280;5407;51.234;6.804;2023-04-04T08:01:21;102387.00;;;23.63;35.61
10712;BME280;5407;51.234;6.804;2023-04-04T08:03:48;102385.00;;;23.63;35.75
10712;BME280;5407;51.234;6.804;2023-04-04T08:06:17;102383.44;;;23.62;35.77
10712;BME280;5407;51.234;6.804;2023-04-04T08:08:45;102378.72;;;23.63;35.62
10712;BME280;5407;51.234;6.804;2023-04-04T08:11:12;102384.25;;;23.63;35.70
10712;BME280;5407;51.234;6.804;2023-04-04T08:13:39;102384.25;;;23.63;35.56
10712;BME280;5407;51.234;6.804;2023-04-04T08:16:06;102382.66;;;23.62;35.65
10712;BME280;5407;51.234;6.804;2023-04-04T08:18:33;102379.50;;;23.63;35.73
10712;BME280;5407;51.234;6.804;2023-04-04T08:21:00;102384.25;;;23.63;35.73
10712;BME280;5407;51.234;6.804;2023-04-04T08:23:27;102372.41;;;23.62;35.77
10712;BME280;5407;51.234;6.804;2023-04-04T08:25:55;102384.25;;;23.63;35.69
10712;BME280;5407;51.234;6.804;2023-04-04T08:28:24;102381.47;;;23.63;35.79
10712;BME280;5407;51.234;6.804;2023-04-04T08:30:51;102384.25;;;23.63;35.68
10712;BME280;5407;51.234;6.804;2023-04-04T08:33:19;102389.75;;;23.63;35.63
10712;BME280;5407;51.234;6.804;2023-04-04T08:35:46;102386.19;;;23.62;35.59
10712;BME280;5407;51.234;6.804;2023-04-04T08:38:13;102383.44;;;23.62;35.70
10712;BME280;5407;51.234;6.804;2023-04-04T08:40:40;102389.75;;;23.63;35.73
10712;BME280;5407;51.234;6.804;2023-04-04T08:43:09;102384.25;;;23.63;35.60
10712;BME280;5407;51.234;6.804;2023-04-04T08:45:40;102381.09;;;23.61;35.59
10712;BME280;5407;51.234;6.804;2023-04-04T08:48:08;102388.94;;;23.62;35.60
10712;BME280;5407;51.234;6.804;2023-04-04T08:50:38;102392.09;;;23.61;35.70
10712;BME280;5407;51.234;6.804;2023-04-04T08:53:06;102381.84;;;23.61;35.58
10712;BME280;5407;51.234;6.804;2023-04-04T08:55:34;102378.34;;;23.61;35.67
10712;BME280;5407;51.234;6.804;2023-04-04T08:58:01;102383.84;;;23.61;35.56
10712;BME280;5407;51.234;6.804;2023-04-04T09:00:29;102382.66;;;23.62;35.59
10712;BME280;5407;51.234;6.804;2023-04-04T09:03:01;102392.09;;;23.61;35.73
10712;BME280;5407;51.234;6.804;2023-04-04T09:05:28;102384.63;;;23.61;35.72
10712;BME280;5407;51.234;6.804;2023-04-04T09:07:56;102390.53;;;23.60;35.79
10712;BME280;5407;51.234;6.804;2023-04-04T09:10:23;102380.28;;;23.60;35.74
10712;BME280;5407;51.234;6.804;2023-04-04T09:12:51;102383.84;;;23.61;35.63
10712;BME280;5407;51.234;6.804;2023-04-04T09:15:19;102379.50;;;23.60;35.58
10712;BME280;5407;51.234;6.804;2023-04-04T09:17:48;102385.03;;;23.60;35.92
10712;BME280;5407;51.234;6.804;2023-04-04T09:20:38;102383.84;;;23.61;35.87
10712;BME280;5407;51.234;6.804;2023-04-04T09:23:06;102375.56;;;23.61;35.83
10712;BME280;5407;51.234;6.804;2023-04-04T09:25:33;102375.19;;;23.59;35.95
10712;BME280;5407;51.234;6.804;2023-04-04T09:28:01;102362.19;;;23.63;35.79
10712;BME280;5407;51.234;6.804;2023-04-04T09:30:30;102369.66;;;23.62;35.81
10712;BME280;5407;51.234;6.804;2023-04-04T09:33:02;102368.06;;;23.61;35.95
10712;BME280;5407;51.234;6.804;2023-04-04T09:35:31;102367.72;;;23.63;36.00
10712;BME280;5407;51.234;6.804;2023-04-04T09:37:59;102374.00;;;23.63;36.12
10712;BME280;5407;51.234;6.804;2023-04-04T09:40:27;102374.00;;;23.63;36.15
10712;BME280;5407;51.234;6.804;2023-04-04T09:42:59;102366.16;;;23.69;36.24
10712;BME280;5407;51.234;6.804;2023-04-04T09:45:26;102359.47;;;23.73;36.18
10712;BME280;5407;51.234;6.804;2023-04-04T09:47:55;102361.44;;;23.76;36.29
10712;BME280;5407;51.234;6.804;2023-04-04T09:50:24;102347.25;;;23.77;36.22
10712;BME280;5407;51.234;6.804;2023-04-04T09:52:56;102356.72;;;23.80;36.29
10712;BME280;5407;51.234;6.804;2023-04-04T09:55:31;102363.06;;;23.84;36.12
10712;BME280;5407;51.234;6.804;2023-04-04T09:57:58;102365.41;;;23.85;36.22
10712;BME280;5407;51.234;6.804;2023-04-04T10:00:28;102355.97;;;23.86;36.18
10712;BME280;5407;51.234;6.804;2023-04-04T10:03:01;102352.84;;;23.88;36.27
10712;BME280;5407;51.234;6.804;2023-04-04T10:05:30;102356.38;;;23.88;36.14
10712;BME280;5407;51.234;6.804;2023-04-04T10:07:58;102359.56;;;23.90;36.12
10712;BME280;5407;51.234;6.804;2023-04-04T10:10:26;102363.09;;;23.91;36.12
10712;BME280;5407;51.234;6.804;2023-04-04T10:12:56;102354.44;;;23.92;36.32
10712;BME280;5407;51.234;6.804;2023-04-04T10:15:23;102361.53;;;23.93;36.29
10712;BME280;5407;51.234;6.804;2023-04-04T10:17:52;102350.50;;;23.93;36.25
10712;BME280;5407;51.234;6.804;2023-04-04T10:20:20;102350.91;;;23.95;36.24
10712;BME280;5407;51.234;6.804;2023-04-04T10:22:49;102343.00;;;23.97;36.21
10712;BME280;5407;51.234;6.804;2023-04-04T10:25:16;102343.41;;;23.96;36.34
10712;BME280;5407;51.234;6.804;2023-04-04T10:27:43;102344.59;;;23.98;36.45
10712;BME280;5407;51.234;6.804;2023-04-04T10:30:11;102336.31;;;23.98;36.24
10712;BME280;5407;51.234;6.804;2023-04-04T10:32:42;102335.13;;;23.99;36.33
10712;BME280;5407;51.234;6.804;2023-04-04T10:35:13;102330.03;;;24.01;36.20
10712;BME280;5407;51.234;6.804;2023-04-04T10:37:42;102335.13;;;23.96;36.49
10712;BME280;5407;51.234;6.804;2023-04-04T10:40:15;102341.03;;;23.94;36.40
10712;BME280;5407;51.234;6.804;2023-04-04T10:42:45;102340.63;;;23.96;36.61
10712;BME280;5407;51.234;6.804;2023-04-04T10:45:13;102328.44;;;23.97;36.67
10712;BME280;5407;51.234;6.804;2023-04-04T10:47:41;102330.00;;;23.98;36.92
10712;BME280;5407;51.234;6.804;2023-04-04T10:50:10;102322.94;;;24.00;36.97
10712;BME280;5407;51.234;6.804;2023-04-04T10:52:39;102320.16;;;24.00;36.97
10712;BME280;5407;51.234;6.804;2023-04-04T10:55:09;102317.41;;;24.00;37.07
10712;BME280;5407;51.234;6.804;2023-04-04T10:57:39;102307.97;;;24.01;37.13
10712;BME280;5407;51.234;6.804;2023-04-04T11:00:08;102305.19;;;24.05;37.17
10712;BME280;5407;51.234;6.804;2023-04-04T11:02:44;102292.97;;;24.06;37.26
10712;BME280;5407;51.234;6.804;2023-04-04T11:05:11;102288.66;;;24.08;37.30
10712;BME280;5407;51.234;6.804;2023-04-04T11:07:39;102287.47;;;24.09;37.45
10712;BME280;5407;51.234;6.804;2023-04-04T11:10:12;102279.59;;;24.11;37.71
10712;BME280;5407;51.234;6.804;2023-04-04T11:12:45;102281.19;;;24.05;38.00
10712;BME280;5407;51.234;6.804;2023-04-04T11:15:13;102281.19;;;24.05;37.62
10712;BME280;5407;51.234;6.804;2023-04-04T11:17:42;102276.44;;;24.02;38.29
10712;BME280;5407;51.234;6.804;2023-04-04T11:20:09;102278.00;;;24.00;38.72
10712;BME280;5407;51.234;6.804;2023-04-04T11:22:36;102278.00;;;24.00;38.71
10712;BME280;5407;51.234;6.804;2023-04-04T11:28:08;102266.59;;;24.01;38.60
10712;BME280;5407;51.234;6.804;2023-04-04T11:30:40;102274.06;;;24.01;38.69
10712;BME280;5407;51.234;6.804;2023-04-04T11:33:13;102273.28;;;24.00;38.78
10712;BME280;5407;51.234;6.804;2023-04-04T11:35:50;102269.34;;;24.01;38.63
10712;BME280;5407;51.234;6.804;2023-04-04T11:38:19;102269.75;;;24.00;38.61
10712;BME280;5407;51.234;6.804;2023-04-04T11:40:53;102266.97;;;24.00;38.76
10712;BME280;5407;51.234;6.804;2023-04-04T11:43:22;102264.63;;;23.98;38.81
10712;BME280;5407;51.234;6.804;2023-04-04T11:45:49;102273.28;;;24.00;38.84
10712;BME280;5407;51.234;6.804;2023-04-04T11:48:18;102270.94;;;24.02;38.59
10712;BME280;5407;51.234;6.804;2023-04-04T11:50:46;102265.03;;;24.00;38.80
10712;BME280;5407;51.234;6.804;2023-04-04T11:53:16;102261.09;;;24.01;38.75
10712;BME280;5407;51.234;6.804;2023-04-04T11:55:44;102259.91;;;24.02;38.70
10712;BME280;5407;51.234;6.804;2023-04-04T11:58:15;102246.50;;;24.04;38.74
10712;BME280;5407;51.234;6.804;2023-04-04T12:00:44;102251.22;;;24.04;38.53
10712;BME280;5407;51.234;6.804;2023-04-04T12:03:14;102245.31;;;24.05;38.65
10712;BME280;5407;51.234;6.804;2023-04-04T12:05:43;102246.50;;;24.08;38.51
10712;BME280;5407;51.234;6.804;2023-04-04T12:08:10;102243.34;;;24.09;38.52
10712;BME280;5407;51.234;6.804;2023-04-04T12:10:38;102235.09;;;24.09;38.62
10712;BME280;5407;51.234;6.804;2023-04-04T12:13:07;102235.47;;;24.11;38.53
10712;BME280;5407;51.234;6.804;2023-04-04T12:15:35;102230.72;;;24.12;38.64
10712;BME280;5407;51.234;6.804;2023-04-04T12:18:05;102219.69;;;24.12;38.65
10712;BME280;5407;51.234;6.804;2023-04-04T12:20:32;102226.00;;;24.12;38.59
10712;BME280;5407;51.234;6.804;2023-04-04T12:22:59;102234.69;;;24.14;38.60
10712;BME280;5407;51.234;6.804;2023-04-04T12:25:26;102225.59;;;24.17;38.73
10712;BME280;5407;51.234;6.804;2023-04-04T12:27:58;102226.00;;;24.19;38.65
10712;BME280;5407;51.234;6.804;2023-04-04T12:30:26;102227.56;;;24.20;38.59
10712;BME280;5407;51.234;6.804;2023-04-04T12:32:53;102219.69;;;24.22;38.63
10712;BME280;5407;51.234;6.804;2023-04-04T12:35:22;102219.69;;;24.22;38.57
10712;BME280;5407;51.234;6.804;2023-04-04T12:37:57;102214.56;;;24.24;38.77
10712;BME280;5407;51.234;6.804;2023-04-04T12:40:28;102216.53;;;24.24;38.88
10712;BME280;5407;51.234;6.804;2023-04-04T12:42:58;102188.16;;;24.27;38.80
10712;BME280;5407;51.234;6.804;2023-04-04T12:45:25;102190.50;;;24.28;38.82
10712;BME280;5407;51.234;6.804;2023-04-04T12:47:53;102186.56;;;24.29;38.75
10712;BME280;5407;51.234;6.804;2023-04-04T12:50:23;102182.63;;;24.30;38.67
10712;BME280;5407;51.234;6.804;2023-04-04T12:52:51;102174.75;;;24.32;38.58
10712;BME280;5407;51.234;6.804;2023-04-04T12:55:20;102176.31;;;24.33;38.60
10712;BME280;5407;51.234;6.804;2023-04-04T12:57:48;102183.78;;;24.43;38.25
10712;BME280;5407;51.234;6.804;2023-04-04T13:00:16;102175.09;;;24.48;38.33
10712;BME280;5407;51.234;6.804;2023-04-04T13:02:45;102171.16;;;24.49;38.22
10712;BME280;5407;51.234;6.804;2023-04-04T13:05:14;102167.59;;;24.49;38.72
10712;BME280;5407;51.234;6.804;2023-04-04T13:07:43;102174.31;;;24.48;38.47
10712;BME280;5407;51.234;6.804;2023-04-04T13:10:12;102164.44;;;24.54;38.23